Terminal Aerodrome Forecast
Issued by NWS

Home | Current Version | Previous Version | Text Only | Print | Product List | Glossary On
Versions: 1 2 3 4 5 6 7 8 9 10 11 12
000
FTUS44 KTSA 291100
TAFMLC
TAF
KMLC 291120Z 2912/3012 18005KT P6SM VCSH SCT050 BKN150
     FM291800 19007KT P6SM VCTS SCT050CB BKN250
      TEMPO 2920/2924 5SM -TSRA BKN050CB
     FM300000 17004KT P6SM VCTS SCT050CB BKN250 PROB30 3000/3006 5SM
      -TSRA BKN050CB
     FM300600 18005KT P6SM SCT250=

USA.gov is the U.S. government's official web portal to all federal, state and local government web resources and services.